sensor_id;sensor_type;location;lat;lon;timestamp;P1;durP1;ratioP1;P2;durP2;ratioP2
46613;SDS011;32338;50.430;6.806;2023-04-07T00:02:10;25.23;;;15.20;;
46613;SDS011;32338;50.430;6.806;2023-04-07T00:04:36;25.60;;;14.20;;
46613;SDS011;32338;50.430;6.806;2023-04-07T00:07:04;18.95;;;13.38;;
46613;SDS011;32338;50.430;6.806;2023-04-07T00:09:31;23.30;;;14.93;;
46613;SDS011;32338;50.430;6.806;2023-04-07T00:11:58;24.20;;;14.93;;
46613;SDS011;32338;50.430;6.806;2023-04-07T00:14:26;18.95;;;13.23;;
46613;SDS011;32338;50.430;6.806;2023-04-07T00:16:53;19.15;;;13.38;;
46613;SDS011;32338;50.430;6.806;2023-04-07T00:19:19;19.52;;;12.95;;
46613;SDS011;32338;50.430;6.806;2023-04-07T00:21:46;20.80;;;13.63;;
46613;SDS011;32338;50.430;6.806;2023-04-07T00:24:14;19.35;;;13.93;;
46613;SDS011;32338;50.430;6.806;2023-04-07T00:26:41;21.23;;;13.13;;
46613;SDS011;32338;50.430;6.806;2023-04-07T00:29:07;22.42;;;13.93;;
46613;SDS011;32338;50.430;6.806;2023-04-07T00:31:34;19.23;;;14.05;;
46613;SDS011;32338;50.430;6.806;2023-04-07T00:34:01;21.25;;;14.63;;
46613;SDS011;32338;50.430;6.806;2023-04-07T00:36:27;21.08;;;13.18;;
46613;SDS011;32338;50.430;6.806;2023-04-07T00:38:54;20.60;;;12.82;;
46613;SDS011;32338;50.430;6.806;2023-04-07T00:41:22;19.48;;;13.43;;
46613;SDS011;32338;50.430;6.806;2023-04-07T00:43:48;17.35;;;12.48;;
46613;SDS011;32338;50.430;6.806;2023-04-07T00:46:15;17.45;;;12.75;;
46613;SDS011;32338;50.430;6.806;2023-04-07T00:48:42;20.88;;;13.57;;
46613;SDS011;32338;50.430;6.806;2023-04-07T00:51:10;22.58;;;13.85;;
46613;SDS011;32338;50.430;6.806;2023-04-07T00:53:37;18.83;;;13.52;;
46613;SDS011;32338;50.430;6.806;2023-04-07T00:56:03;21.95;;;14.63;;
46613;SDS011;32338;50.430;6.806;2023-04-07T00:58:32;25.83;;;14.52;;
46613;SDS011;32338;50.430;6.806;2023-04-07T01:01:01;22.20;;;14.18;;
46613;SDS011;32338;50.430;6.806;2023-04-07T01:03:33;20.23;;;15.05;;
46613;SDS011;32338;50.430;6.806;2023-04-07T01:06:05;22.92;;;15.23;;
46613;SDS011;32338;50.430;6.806;2023-04-07T01:08:36;19.92;;;14.05;;
46613;SDS011;32338;50.430;6.806;2023-04-07T01:11:07;22.83;;;14.57;;
46613;SDS011;32338;50.430;6.806;2023-04-07T01:13:42;17.17;;;13.18;;
46613;SDS011;32338;50.430;6.806;2023-04-07T01:16:15;19.42;;;12.88;;
46613;SDS011;32338;50.430;6.806;2023-04-07T01:18:56;21.50;;;14.00;;
46613;SDS011;32338;50.430;6.806;2023-04-07T01:21:27;22.42;;;13.65;;
46613;SDS011;32338;50.430;6.806;2023-04-07T01:24:01;21.73;;;13.18;;
46613;SDS011;32338;50.430;6.806;2023-04-07T01:26:35;19.00;;;12.68;;
46613;SDS011;32338;50.430;6.806;2023-04-07T01:32:01;18.63;;;12.25;;
46613;SDS011;32338;50.430;6.806;2023-04-07T01:34:29;24.27;;;14.10;;
46613;SDS011;32338;50.430;6.806;2023-04-07T01:36:58;18.38;;;12.20;;
46613;SDS011;32338;50.430;6.806;2023-04-07T01:39:26;18.20;;;13.07;;
46613;SDS011;32338;50.430;6.806;2023-04-07T01:41:53;16.95;;;11.60;;
46613;SDS011;32338;50.430;6.806;2023-04-07T01:44:21;20.40;;;13.20;;
46613;SDS011;32338;50.430;6.806;2023-04-07T01:46:49;14.57;;;11.27;;
46613;SDS011;32338;50.430;6.806;2023-04-07T01:49:16;15.45;;;11.70;;
46613;SDS011;32338;50.430;6.806;2023-04-07T01:51:44;17.38;;;12.32;;
46613;SDS011;32338;50.430;6.806;2023-04-07T01:54:14;13.23;;;11.27;;
46613;SDS011;32338;50.430;6.806;2023-04-07T01:56:41;21.08;;;14.93;;
46613;SDS011;32338;50.430;6.806;2023-04-07T01:59:08;17.05;;;11.75;;
46613;SDS011;32338;50.430;6.806;2023-04-07T02:01:34;18.35;;;11.55;;
46613;SDS011;32338;50.430;6.806;2023-04-07T02:04:05;17.92;;;11.13;;
46613;SDS011;32338;50.430;6.806;2023-04-07T02:06:39;16.50;;;11.50;;
46613;SDS011;32338;50.430;6.806;2023-04-07T02:09:09;14.43;;;10.98;;
46613;SDS011;32338;50.430;6.806;2023-04-07T02:11:38;16.02;;;10.35;;
46613;SDS011;32338;50.430;6.806;2023-04-07T02:14:07;12.18;;;9.68;;
46613;SDS011;32338;50.430;6.806;2023-04-07T02:16:35;12.55;;;9.85;;
46613;SDS011;32338;50.430;6.806;2023-04-07T02:19:04;13.90;;;9.85;;
46613;SDS011;32338;50.430;6.806;2023-04-07T02:21:31;11.13;;;9.70;;
46613;SDS011;32338;50.430;6.806;2023-04-07T02:23:59;17.73;;;11.30;;
46613;SDS011;32338;50.430;6.806;2023-04-07T02:26:26;12.55;;;9.85;;
46613;SDS011;32338;50.430;6.806;2023-04-07T02:28:53;13.35;;;9.95;;
46613;SDS011;32338;50.430;6.806;2023-04-07T02:31:19;13.13;;;9.85;;
46613;SDS011;32338;50.430;6.806;2023-04-07T02:33:46;15.25;;;10.57;;
46613;SDS011;32338;50.430;6.806;2023-04-07T02:36:14;15.07;;;10.10;;
46613;SDS011;32338;50.430;6.806;2023-04-07T02:38:40;14.35;;;10.15;;
46613;SDS011;32338;50.430;6.806;2023-04-07T02:41:07;12.57;;;9.95;;
46613;SDS011;32338;50.430;6.806;2023-04-07T02:43:33;15.75;;;11.25;;
46613;SDS011;32338;50.430;6.806;2023-04-07T02:46:00;13.88;;;10.18;;
46613;SDS011;32338;50.430;6.806;2023-04-07T02:48:26;12.07;;;8.60;;
46613;SDS011;32338;50.430;6.806;2023-04-07T02:50:53;11.02;;;8.98;;
46613;SDS011;32338;50.430;6.806;2023-04-07T02:53:21;12.50;;;8.65;;
46613;SDS011;32338;50.430;6.806;2023-04-07T02:55:48;13.40;;;8.82;;
46613;SDS011;32338;50.430;6.806;2023-04-07T02:58:14;11.15;;;8.43;;
46613;SDS011;32338;50.430;6.806;2023-04-07T03:00:41;12.73;;;8.55;;
46613;SDS011;32338;50.430;6.806;2023-04-07T03:03:07;17.38;;;9.25;;
46613;SDS011;32338;50.430;6.806;2023-04-07T03:05:34;11.27;;;8.77;;
46613;SDS011;32338;50.430;6.806;2023-04-07T03:08:01;14.13;;;9.85;;
46613;SDS011;32338;50.430;6.806;2023-04-07T03:10:28;12.52;;;8.68;;
46613;SDS011;32338;50.430;6.806;2023-04-07T03:12:55;13.77;;;9.93;;
46613;SDS011;32338;50.430;6.806;2023-04-07T03:15:22;13.25;;;9.07;;
46613;SDS011;32338;50.430;6.806;2023-04-07T03:17:48;13.23;;;9.55;;
46613;SDS011;32338;50.430;6.806;2023-04-07T03:20:15;12.57;;;8.85;;
46613;SDS011;32338;50.430;6.806;2023-04-07T03:22:42;13.80;;;8.45;;
46613;SDS011;32338;50.430;6.806;2023-04-07T03:25:11;12.23;;;8.30;;
46613;SDS011;32338;50.430;6.806;2023-04-07T03:27:39;9.55;;;8.30;;
46613;SDS011;32338;50.430;6.806;2023-04-07T03:30:06;13.52;;;9.00;;
46613;SDS011;32338;50.430;6.806;2023-04-07T03:32:33;14.35;;;9.80;;
46613;SDS011;32338;50.430;6.806;2023-04-07T03:35:00;15.55;;;10.18;;
46613;SDS011;32338;50.430;6.806;2023-04-07T03:37:27;17.45;;;10.38;;
46613;SDS011;32338;50.430;6.806;2023-04-07T03:39:53;18.08;;;10.80;;
46613;SDS011;32338;50.430;6.806;2023-04-07T03:42:20;15.70;;;10.80;;
46613;SDS011;32338;50.430;6.806;2023-04-07T03:44:48;19.38;;;11.27;;
46613;SDS011;32338;50.430;6.806;2023-04-07T03:47:15;16.75;;;10.75;;
46613;SDS011;32338;50.430;6.806;2023-04-07T03:49:41;21.23;;;11.88;;
46613;SDS011;32338;50.430;6.806;2023-04-07T03:52:08;26.17;;;13.00;;
46613;SDS011;32338;50.430;6.806;2023-04-07T03:54:35;21.63;;;10.88;;
46613;SDS011;32338;50.430;6.806;2023-04-07T03:57:01;23.23;;;12.32;;
46613;SDS011;32338;50.430;6.806;2023-04-07T03:59:28;25.17;;;12.73;;
46613;SDS011;32338;50.430;6.806;2023-04-07T04:01:56;21.80;;;12.48;;
46613;SDS011;32338;50.430;6.806;2023-04-07T04:04:23;27.40;;;13.52;;
46613;SDS011;32338;50.430;6.806;2023-04-07T04:06:50;25.40;;;13.40;;
46613;SDS011;32338;50.430;6.806;2023-04-07T04:09:16;26.65;;;13.32;;
46613;SDS011;32338;50.430;6.806;2023-04-07T04:11:43;22.38;;;13.38;;
46613;SDS011;32338;50.430;6.806;2023-04-07T04:14:09;25.85;;;13.55;;
46613;SDS011;32338;50.430;6.806;2023-04-07T04:16:36;24.40;;;12.38;;
46613;SDS011;32338;50.430;6.806;2023-04-07T04:19:04;21.25;;;11.90;;
46613;SDS011;32338;50.430;6.806;2023-04-07T04:21:30;25.75;;;12.20;;
46613;SDS011;32338;50.430;6.806;2023-04-07T04:23:57;25.77;;;12.88;;
46613;SDS011;32338;50.430;6.806;2023-04-07T04:26:24;22.27;;;12.10;;
46613;SDS011;32338;50.430;6.806;2023-04-07T04:28:50;25.20;;;12.82;;
46613;SDS011;32338;50.430;6.806;2023-04-07T04:31:17;23.42;;;13.30;;
46613;SDS011;32338;50.430;6.806;2023-04-07T04:33:44;26.02;;;13.23;;
46613;SDS011;32338;50.430;6.806;2023-04-07T04:36:12;24.83;;;12.85;;
46613;SDS011;32338;50.430;6.806;2023-04-07T04:38:39;28.67;;;13.63;;
46613;SDS011;32338;50.430;6.806;2023-04-07T04:41:05;25.92;;;14.32;;
46613;SDS011;32338;50.430;6.806;2023-04-07T04:43:32;31.48;;;15.35;;
46613;SDS011;32338;50.430;6.806;2023-04-07T04:45:58;28.30;;;14.13;;
46613;SDS011;32338;50.430;6.806;2023-04-07T04:48:25;29.88;;;14.98;;
46613;SDS011;32338;50.430;6.806;2023-04-07T04:50:52;27.77;;;15.68;;
46613;SDS011;32338;50.430;6.806;2023-04-07T04:53:20;37.40;;;15.60;;
46613;SDS011;32338;50.430;6.806;2023-04-07T04:55:46;34.55;;;16.70;;
46613;SDS011;32338;50.430;6.806;2023-04-07T04:58:16;30.92;;;15.20;;
46613;SDS011;32338;50.430;6.806;2023-04-07T05:00:43;34.53;;;16.60;;
46613;SDS011;32338;50.430;6.806;2023-04-07T05:03:09;32.33;;;15.98;;
46613;SDS011;32338;50.430;6.806;2023-04-07T05:05:36;28.83;;;14.60;;
46613;SDS011;32338;50.430;6.806;2023-04-07T05:08:03;34.25;;;16.02;;
46613;SDS011;32338;50.430;6.806;2023-04-07T05:10:31;31.83;;;14.90;;
46613;SDS011;32338;50.430;6.806;2023-04-07T05:12:58;33.20;;;16.13;;
46613;SDS011;32338;50.430;6.806;2023-04-07T05:15:24;27.20;;;15.18;;
46613;SDS011;32338;50.430;6.806;2023-04-07T05:17:51;29.42;;;15.82;;
46613;SDS011;32338;50.430;6.806;2023-04-07T05:20:17;33.38;;;15.38;;
46613;SDS011;32338;50.430;6.806;2023-04-07T05:22:44;32.20;;;15.35;;
46613;SDS011;32338;50.430;6.806;2023-04-07T05:25:11;28.50;;;15.32;;
46613;SDS011;32338;50.430;6.806;2023-04-07T05:27:39;29.00;;;14.88;;
46613;SDS011;32338;50.430;6.806;2023-04-07T05:30:06;25.25;;;14.18;;
46613;SDS011;32338;50.430;6.806;2023-04-07T05:32:33;26.95;;;14.77;;
46613;SDS011;32338;50.430;6.806;2023-04-07T05:35:00;27.05;;;13.45;;
46613;SDS011;32338;50.430;6.806;2023-04-07T05:37:26;27.10;;;14.55;;
46613;SDS011;32338;50.430;6.806;2023-04-07T05:39:53;31.38;;;14.80;;
46613;SDS011;32338;50.430;6.806;2023-04-07T05:42:20;26.65;;;14.25;;
46613;SDS011;32338;50.430;6.806;2023-04-07T05:44:48;28.10;;;13.35;;
46613;SDS011;32338;50.430;6.806;2023-04-07T05:47:14;26.77;;;13.20;;
46613;SDS011;32338;50.430;6.806;2023-04-07T05:49:41;26.70;;;14.82;;
46613;SDS011;32338;50.430;6.806;2023-04-07T05:52:10;24.27;;;12.98;;
46613;SDS011;32338;50.430;6.806;2023-04-07T05:54:37;21.83;;;12.98;;
46613;SDS011;32338;50.430;6.806;2023-04-07T05:57:04;25.30;;;13.85;;
46613;SDS011;32338;50.430;6.806;2023-04-07T05:59:31;23.63;;;13.48;;
46613;SDS011;32338;50.430;6.806;2023-04-07T06:01:59;30.52;;;14.40;;
46613;SDS011;32338;50.430;6.806;2023-04-07T06:04:26;22.20;;;12.52;;
46613;SDS011;32338;50.430;6.806;2023-04-07T06:06:52;25.60;;;14.38;;
46613;SDS011;32338;50.430;6.806;2023-04-07T06:09:19;21.58;;;13.77;;
46613;SDS011;32338;50.430;6.806;2023-04-07T06:11:46;27.02;;;14.40;;
46613;SDS011;32338;50.430;6.806;2023-04-07T06:14:12;22.38;;;13.18;;
46613;SDS011;32338;50.430;6.806;2023-04-07T06:16:39;25.60;;;14.18;;
46613;SDS011;32338;50.430;6.806;2023-04-07T06:19:07;27.00;;;13.77;;
46613;SDS011;32338;50.430;6.806;2023-04-07T06:21:34;28.55;;;14.02;;
46613;SDS011;32338;50.430;6.806;2023-04-07T06:24:00;22.83;;;13.10;;
46613;SDS011;32338;50.430;6.806;2023-04-07T06:26:27;28.00;;;14.80;;
46613;SDS011;32338;50.430;6.806;2023-04-07T06:28:54;26.95;;;13.65;;
46613;SDS011;32338;50.430;6.806;2023-04-07T06:31:20;26.00;;;13.60;;
46613;SDS011;32338;50.430;6.806;2023-04-07T06:33:47;23.27;;;13.88;;
46613;SDS011;32338;50.430;6.806;2023-04-07T06:36:15;29.48;;;15.50;;
46613;SDS011;32338;50.430;6.806;2023-04-07T06:38:41;28.38;;;15.23;;
46613;SDS011;32338;50.430;6.806;2023-04-07T06:41:08;31.38;;;15.68;;
46613;SDS011;32338;50.430;6.806;2023-04-07T06:43:40;21.33;;;14.20;;
46613;SDS011;32338;50.430;6.806;2023-04-07T06:46:07;28.52;;;14.85;;
46613;SDS011;32338;50.430;6.806;2023-04-07T06:48:34;29.10;;;15.43;;
46613;SDS011;32338;50.430;6.806;2023-04-07T06:51:00;26.88;;;15.07;;
46613;SDS011;32338;50.430;6.806;2023-04-07T06:53:28;26.83;;;15.02;;
46613;SDS011;32338;50.430;6.806;2023-04-07T06:56:01;28.52;;;14.95;;
46613;SDS011;32338;50.430;6.806;2023-04-07T06:58:28;30.45;;;15.68;;
46613;SDS011;32338;50.430;6.806;2023-04-07T07:00:55;23.90;;;15.02;;
46613;SDS011;32338;50.430;6.806;2023-04-07T07:03:22;28.40;;;14.27;;
46613;SDS011;32338;50.430;6.806;2023-04-07T07:05:51;31.00;;;16.10;;
46613;SDS011;32338;50.430;6.806;2023-04-07T07:08:18;25.08;;;15.10;;
46613;SDS011;32338;50.430;6.806;2023-04-07T07:10:46;34.97;;;17.20;;
46613;SDS011;32338;50.430;6.806;2023-04-07T07:13:13;33.25;;;16.25;;
46613;SDS011;32338;50.430;6.806;2023-04-07T07:15:40;27.83;;;17.30;;
46613;SDS011;32338;50.430;6.806;2023-04-07T07:18:06;31.30;;;16.05;;
46613;SDS011;32338;50.430;6.806;2023-04-07T07:20:33;31.25;;;16.90;;
46613;SDS011;32338;50.430;6.806;2023-04-07T07:22:59;34.33;;;17.85;;
46613;SDS011;32338;50.430;6.806;2023-04-07T07:25:26;33.15;;;18.05;;
46613;SDS011;32338;50.430;6.806;2023-04-07T07:27:54;35.53;;;18.08;;
46613;SDS011;32338;50.430;6.806;2023-04-07T07:30:21;37.05;;;18.40;;
46613;SDS011;32338;50.430;6.806;2023-04-07T07:32:48;37.22;;;18.73;;
46613;SDS011;32338;50.430;6.806;2023-04-07T07:35:17;34.88;;;18.55;;
46613;SDS011;32338;50.430;6.806;2023-04-07T07:37:44;32.35;;;17.98;;
46613;SDS011;32338;50.430;6.806;2023-04-07T07:40:12;35.75;;;18.55;;
46613;SDS011;32338;50.430;6.806;2023-04-07T07:42:38;39.65;;;19.92;;
46613;SDS011;32338;50.430;6.806;2023-04-07T07:45:07;34.10;;;17.50;;
46613;SDS011;32338;50.430;6.806;2023-04-07T07:47:36;39.15;;;18.33;;
46613;SDS011;32338;50.430;6.806;2023-04-07T07:50:02;37.42;;;18.45;;
46613;SDS011;32338;50.430;6.806;2023-04-07T07:52:29;32.15;;;17.33;;
46613;SDS011;32338;50.430;6.806;2023-04-07T07:54:56;31.50;;;16.77;;
46613;SDS011;32338;50.430;6.806;2023-04-07T07:57:22;34.88;;;16.45;;
46613;SDS011;32338;50.430;6.806;2023-04-07T07:59:49;26.30;;;15.85;;
46613;SDS011;32338;50.430;6.806;2023-04-07T08:02:17;32.03;;;17.10;;
46613;SDS011;32338;50.430;6.806;2023-04-07T08:04:44;31.83;;;16.40;;
46613;SDS011;32338;50.430;6.806;2023-04-07T08:07:10;36.38;;;16.77;;
46613;SDS011;32338;50.430;6.806;2023-04-07T08:09:37;29.75;;;17.20;;
46613;SDS011;32338;50.430;6.806;2023-04-07T08:12:03;40.03;;;18.75;;
46613;SDS011;32338;50.430;6.806;2023-04-07T08:14:30;32.50;;;17.60;;
46613;SDS011;32338;50.430;6.806;2023-04-07T08:16:56;31.27;;;17.15;;
46613;SDS011;32338;50.430;6.806;2023-04-07T08:19:24;33.65;;;17.45;;
46613;SDS011;32338;50.430;6.806;2023-04-07T08:21:51;33.03;;;17.48;;
46613;SDS011;32338;50.430;6.806;2023-04-07T08:24:17;31.75;;;16.75;;
46613;SDS011;32338;50.430;6.806;2023-04-07T08:26:44;24.63;;;14.45;;
46613;SDS011;32338;50.430;6.806;2023-04-07T08:29:11;19.48;;;12.35;;
46613;SDS011;32338;50.430;6.806;2023-04-07T08:31:37;21.77;;;11.95;;
46613;SDS011;32338;50.430;6.806;2023-04-07T08:34:04;24.15;;;12.00;;
46613;SDS011;32338;50.430;6.806;2023-04-07T08:36:32;26.77;;;12.68;;
46613;SDS011;32338;50.430;6.806;2023-04-07T08:38:59;21.20;;;11.95;;
46613;SDS011;32338;50.430;6.806;2023-04-07T08:41:27;18.13;;;10.73;;
46613;SDS011;32338;50.430;6.806;2023-04-07T08:43:56;19.48;;;11.13;;
46613;SDS011;32338;50.430;6.806;2023-04-07T08:46:23;20.30;;;12.30;;
46613;SDS011;32338;50.430;6.806;2023-04-07T08:48:51;20.98;;;11.18;;
46613;SDS011;32338;50.430;6.806;2023-04-07T08:51:22;16.38;;;11.15;;
46613;SDS011;32338;50.430;6.806;2023-04-07T08:53:55;16.10;;;10.32;;
46613;SDS011;32338;50.430;6.806;2023-04-07T08:56:29;16.02;;;9.23;;
46613;SDS011;32338;50.430;6.806;2023-04-07T08:58:57;14.90;;;8.85;;
46613;SDS011;32338;50.430;6.806;2023-04-07T09:01:24;11.07;;;8.82;;
46613;SDS011;32338;50.430;6.806;2023-04-07T09:03:51;28.73;;;16.40;;
46613;SDS011;32338;50.430;6.806;2023-04-07T09:06:19;14.77;;;8.85;;
46613;SDS011;32338;50.430;6.806;2023-04-07T09:08:46;12.05;;;8.55;;
46613;SDS011;32338;50.430;6.806;2023-04-07T09:11:13;18.42;;;11.55;;
46613;SDS011;32338;50.430;6.806;2023-04-07T09:13:40;11.05;;;7.25;;
46613;SDS011;32338;50.430;6.806;2023-04-07T09:16:07;12.35;;;7.63;;
46613;SDS011;32338;50.430;6.806;2023-04-07T09:18:33;10.63;;;8.05;;
46613;SDS011;32338;50.430;6.806;2023-04-07T09:21:00;7.28;;;6.53;;
46613;SDS011;32338;50.430;6.806;2023-04-07T09:23:29;7.80;;;6.05;;
46613;SDS011;32338;50.430;6.806;2023-04-07T09:25:57;7.45;;;6.05;;
46613;SDS011;32338;50.430;6.806;2023-04-07T09:28:44;9.45;;;5.63;;
46613;SDS011;32338;50.430;6.806;2023-04-07T09:31:11;11.65;;;5.53;;
46613;SDS011;32338;50.430;6.806;2023-04-07T09:33:38;7.63;;;4.43;;
46613;SDS011;32338;50.430;6.806;2023-04-07T09:36:05;12.45;;;5.30;;
46613;SDS011;32338;50.430;6.806;2023-04-07T09:38:32;4.97;;;4.13;;
46613;SDS011;32338;50.430;6.806;2023-04-07T09:41:07;6.28;;;4.03;;
46613;SDS011;32338;50.430;6.806;2023-04-07T09:43:35;5.90;;;3.80;;
46613;SDS011;32338;50.430;6.806;2023-04-07T09:46:08;5.88;;;4.60;;
46613;SDS011;32338;50.430;6.806;2023-04-07T09:48:35;6.18;;;4.15;;
46613;SDS011;32338;50.430;6.806;2023-04-07T09:51:06;6.53;;;4.38;;
46613;SDS011;32338;50.430;6.806;2023-04-07T09:53:40;6.35;;;4.53;;
46613;SDS011;32338;50.430;6.806;2023-04-07T09:56:08;9.40;;;4.05;;
46613;SDS011;32338;50.430;6.806;2023-04-07T09:58:37;6.15;;;4.13;;
46613;SDS011;32338;50.430;6.806;2023-04-07T10:01:05;5.00;;;4.38;;
46613;SDS011;32338;50.430;6.806;2023-04-07T10:03:34;5.53;;;4.65;;
46613;SDS011;32338;50.430;6.806;2023-04-07T10:06:01;5.63;;;3.78;;
46613;SDS011;32338;50.430;6.806;2023-04-07T10:08:29;5.35;;;4.85;;
46613;SDS011;32338;50.430;6.806;2023-04-07T10:10:57;7.53;;;5.10;;
46613;SDS011;32338;50.430;6.806;2023-04-07T10:13:25;6.57;;;4.72;;
46613;SDS011;32338;50.430;6.806;2023-04-07T10:15:53;6.00;;;4.88;;
46613;SDS011;32338;50.430;6.806;2023-04-07T10:18:23;6.63;;;4.90;;
46613;SDS011;32338;50.430;6.806;2023-04-07T10:20:54;6.25;;;4.78;;
46613;SDS011;32338;50.430;6.806;2023-04-07T10:23:23;8.30;;;4.68;;
46613;SDS011;32338;50.430;6.806;2023-04-07T10:25:53;7.75;;;5.60;;
46613;SDS011;32338;50.430;6.806;2023-04-07T10:28:24;8.63;;;5.97;;
46613;SDS011;32338;50.430;6.806;2023-04-07T10:30:53;10.10;;;6.07;;
46613;SDS011;32338;50.430;6.806;2023-04-07T10:36:14;5.88;;;5.25;;
46613;SDS011;32338;50.430;6.806;2023-04-07T10:38:41;6.25;;;4.70;;
46613;SDS011;32338;50.430;6.806;2023-04-07T10:41:48;5.28;;;4.45;;
46613;SDS011;32338;50.430;6.806;2023-04-07T10:47:16;4.38;;;3.97;;
46613;SDS011;32338;50.430;6.806;2023-04-07T10:52:44;6.18;;;4.60;;
46613;SDS011;32338;50.430;6.806;2023-04-07T10:55:29;5.57;;;4.97;;
46613;SDS011;32338;50.430;6.806;2023-04-07T10:58:16;8.30;;;5.07;;
46613;SDS011;32338;50.430;6.806;2023-04-07T11:03:56;11.68;;;5.63;;
46613;SDS011;32338;50.430;6.806;2023-04-07T11:06:24;6.32;;;5.72;;
46613;SDS011;32338;50.430;6.806;2023-04-07T11:08:51;6.53;;;5.57;;
46613;SDS011;32338;50.430;6.806;2023-04-07T11:11:33;9.98;;;5.80;;
46613;SDS011;32338;50.430;6.806;2023-04-07T11:14:02;5.65;;;5.05;;
46613;SDS011;32338;50.430;6.806;2023-04-07T11:16:35;8.73;;;5.65;;
46613;SDS011;32338;50.430;6.806;2023-04-07T11:19:06;8.65;;;6.03;;
46613;SDS011;32338;50.430;6.806;2023-04-07T11:21:33;9.95;;;5.35;;
46613;SDS011;32338;50.430;6.806;2023-04-07T11:24:00;7.72;;;5.50;;
46613;SDS011;32338;50.430;6.806;2023-04-07T11:26:29;9.70;;;5.32;;
46613;SDS011;32338;50.430;6.806;2023-04-07T11:29:03;6.90;;;4.93;;
46613;SDS011;32338;50.430;6.806;2023-04-07T11:31:30;5.65;;;4.97;;
46613;SDS011;32338;50.430;6.806;2023-04-07T11:33:58;8.20;;;5.20;;
46613;SDS011;32338;50.430;6.806;2023-04-07T11:36:26;9.98;;;5.43;;
46613;SDS011;32338;50.430;6.806;2023-04-07T11:38:55;8.85;;;5.03;;
46613;SDS011;32338;50.430;6.806;2023-04-07T11:41:22;6.30;;;5.15;;
46613;SDS011;32338;50.430;6.806;2023-04-07T11:44:03;8.80;;;5.43;;
46613;SDS011;32338;50.430;6.806;2023-04-07T11:46:31;6.20;;;5.28;;
46613;SDS011;32338;50.430;6.806;2023-04-07T11:49:07;6.18;;;5.35;;
46613;SDS011;32338;50.430;6.806;2023-04-07T11:51:34;8.25;;;4.82;;
46613;SDS011;32338;50.430;6.806;2023-04-07T11:54:01;7.10;;;4.88;;
46613;SDS011;32338;50.430;6.806;2023-04-07T11:56:28;8.75;;;5.97;;
46613;SDS011;32338;50.430;6.806;2023-04-07T11:58:55;7.70;;;6.28;;
46613;SDS011;32338;50.430;6.806;2023-04-07T12:01:23;11.45;;;5.82;;
46613;SDS011;32338;50.430;6.806;2023-04-07T12:04:04;7.20;;;5.38;;
46613;SDS011;32338;50.430;6.806;2023-04-07T12:06:31;7.78;;;5.22;;
46613;SDS011;32338;50.430;6.806;2023-04-07T12:08:59;7.05;;;4.22;;
46613;SDS011;32338;50.430;6.806;2023-04-07T12:11:26;11.05;;;4.97;;
46613;SDS011;32338;50.430;6.806;2023-04-07T12:13:54;7.32;;;4.07;;
46613;SDS011;32338;50.430;6.806;2023-04-07T12:16:20;4.47;;;3.83;;
46613;SDS011;32338;50.430;6.806;2023-04-07T12:18:48;3.45;;;3.15;;
46613;SDS011;32338;50.430;6.806;2023-04-07T12:21:15;4.50;;;3.58;;
46613;SDS011;32338;50.430;6.806;2023-04-07T12:23:42;9.82;;;3.65;;
46613;SDS011;32338;50.430;6.806;2023-04-07T12:26:09;4.80;;;3.08;;
46613;SDS011;32338;50.430;6.806;2023-04-07T12:28:37;5.15;;;3.03;;
46613;SDS011;32338;50.430;6.806;2023-04-07T12:31:04;4.72;;;3.15;;
46613;SDS011;32338;50.430;6.806;2023-04-07T12:33:30;2.60;;;2.40;;
46613;SDS011;32338;50.430;6.806;2023-04-07T12:35:58;2.63;;;2.42;;
46613;SDS011;32338;50.430;6.806;2023-04-07T12:38:25;3.67;;;2.50;;
46613;SDS011;32338;50.430;6.806;2023-04-07T12:40:52;4.25;;;3.05;;
46613;SDS011;32338;50.430;6.806;2023-04-07T12:43:19;3.92;;;2.70;;
46613;SDS011;32338;50.430;6.806;2023-04-07T12:45:46;4.68;;;3.22;;
46613;SDS011;32338;50.430;6.806;2023-04-07T12:48:12;5.28;;;2.65;;
46613;SDS011;32338;50.430;6.806;2023-04-07T12:50:40;4.55;;;2.63;;
46613;SDS011;32338;50.430;6.806;2023-04-07T12:53:08;5.03;;;3.80;;
46613;SDS011;32338;50.430;6.806;2023-04-07T12:55:34;6.57;;;4.15;;
46613;SDS011;32338;50.430;6.806;2023-04-07T12:58:01;5.05;;;3.30;;
46613;SDS011;32338;50.430;6.806;2023-04-07T13:00:28;5.10;;;3.25;;
46613;SDS011;32338;50.430;6.806;2023-04-07T13:02:55;4.80;;;4.00;;
46613;SDS011;32338;50.430;6.806;2023-04-07T13:05:22;4.00;;;3.17;;
46613;SDS011;32338;50.430;6.806;2023-04-07T13:07:49;5.93;;;3.58;;
46613;SDS011;32338;50.430;6.806;2023-04-07T13:10:17;4.80;;;3.53;;
46613;SDS011;32338;50.430;6.806;2023-04-07T13:12:43;4.80;;;3.65;;
46613;SDS011;32338;50.430;6.806;2023-04-07T13:15:10;4.88;;;3.42;;
46613;SDS011;32338;50.430;6.806;2023-04-07T13:17:37;4.75;;;4.32;;
46613;SDS011;32338;50.430;6.806;2023-04-07T13:20:04;4.65;;;4.22;;
46613;SDS011;32338;50.430;6.806;2023-04-07T13:22:31;4.78;;;3.47;;
46613;SDS011;32338;50.430;6.806;2023-04-07T13:24:58;4.70;;;4.25;;
46613;SDS011;32338;50.430;6.806;2023-04-07T13:27:26;6.10;;;4.45;;
46613;SDS011;32338;50.430;6.806;2023-04-07T13:29:53;5.20;;;4.15;;
46613;SDS011;32338;50.430;6.806;2023-04-07T13:32:19;5.60;;;4.60;;
46613;SDS011;32338;50.430;6.806;2023-04-07T13:34:46;5.10;;;4.53;;
46613;SDS011;32338;50.430;6.806;2023-04-07T13:37:13;7.43;;;4.45;;
46613;SDS011;32338;50.430;6.806;2023-04-07T13:39:40;8.70;;;4.88;;
46613;SDS011;32338;50.430;6.806;2023-04-07T13:42:07;4.60;;;4.20;;
46613;SDS011;32338;50.430;6.806;2023-04-07T13:44:35;4.97;;;4.55;;
46613;SDS011;32338;50.430;6.806;2023-04-07T13:47:03;4.57;;;4.18;;
46613;SDS011;32338;50.430;6.806;2023-04-07T13:49:30;5.30;;;4.80;;
46613;SDS011;32338;50.430;6.806;2023-04-07T13:51:57;5.00;;;4.20;;
46613;SDS011;32338;50.430;6.806;2023-04-07T13:54:23;4.95;;;3.45;;
46613;SDS011;32338;50.430;6.806;2023-04-07T13:56:50;9.38;;;5.00;;
46613;SDS011;32338;50.430;6.806;2023-04-07T13:59:17;7.18;;;4.85;;
46613;SDS011;32338;50.430;6.806;2023-04-07T14:01:45;5.32;;;4.80;;
46613;SDS011;32338;50.430;6.806;2023-04-07T14:04:11;6.07;;;4.45;;
46613;SDS011;32338;50.430;6.806;2023-04-07T14:06:38;5.97;;;4.60;;
46613;SDS011;32338;50.430;6.806;2023-04-07T14:09:06;5.05;;;4.55;;
46613;SDS011;32338;50.430;6.806;2023-04-07T14:11:33;6.32;;;4.82;;
46613;SDS011;32338;50.430;6.806;2023-04-07T14:14:00;8.05;;;4.80;;
46613;SDS011;32338;50.430;6.806;2023-04-07T14:16:27;7.85;;;5.13;;
46613;SDS011;32338;50.430;6.806;2023-04-07T14:18:55;6.10;;;5.40;;
46613;SDS011;32338;50.430;6.806;2023-04-07T14:21:22;6.43;;;5.65;;
46613;SDS011;32338;50.430;6.806;2023-04-07T14:23:51;7.88;;;5.70;;
46613;SDS011;32338;50.430;6.806;2023-04-07T14:26:18;6.97;;;5.20;;
46613;SDS011;32338;50.430;6.806;2023-04-07T14:28:45;8.68;;;5.47;;
46613;SDS011;32338;50.430;6.806;2023-04-07T14:31:12;7.15;;;4.53;;
46613;SDS011;32338;50.430;6.806;2023-04-07T14:33:40;9.00;;;5.13;;
46613;SDS011;32338;50.430;6.806;2023-04-07T14:36:08;7.93;;;5.07;;
46613;SDS011;32338;50.430;6.806;2023-04-07T14:38:35;5.53;;;4.22;;
46613;SDS011;32338;50.430;6.806;2023-04-07T14:41:01;5.03;;;4.53;;
46613;SDS011;32338;50.430;6.806;2023-04-07T14:43:28;5.35;;;4.85;;
46613;SDS011;32338;50.430;6.806;2023-04-07T14:45:55;8.63;;;5.10;;
46613;SDS011;32338;50.430;6.806;2023-04-07T14:48:23;6.07;;;4.30;;
46613;SDS011;32338;50.430;6.806;2023-04-07T14:50:50;5.88;;;5.28;;